createdAt,value
2022-12-11T00:00:05.358Z,98345.63
2022-12-11T00:02:32.028Z,98339.25
2022-12-11T00:04:58.752Z,98335.38
2022-12-11T00:07:25.334Z,98332.03
2022-12-11T00:09:51.935Z,98328.00
2022-12-11T00:12:18.537Z,98328.22
2022-12-11T00:14:45.123Z,98316.16
2022-12-11T00:17:11.798Z,98313.62
2022-12-11T00:19:38.435Z,98325.16
2022-12-11T00:22:04.982Z,98321.03
2022-12-11T00:24:31.551Z,98319.53
2022-12-11T00:26:58.341Z,98311.19
2022-12-11T00:29:24.979Z,98315.38
2022-12-11T00:31:51.653Z,98317.06
2022-12-11T00:34:18.348Z,98314.63
2022-12-11T00:36:44.922Z,98323.19
2022-12-11T00:39:11.574Z,98318.31
2022-12-11T00:41:38.157Z,98306.28
2022-12-11T00:44:05.030Z,98312.62
2022-12-11T00:46:31.646Z,98309.75
2022-12-11T00:48:58.531Z,98313.19
2022-12-11T00:51:26.036Z,98307.53
2022-12-11T00:53:52.889Z,98310.66
2022-12-11T00:56:20.450Z,98314.19
2022-12-11T00:58:47.404Z,98313.38
2022-12-11T01:01:16.746Z,98316.59
2022-12-11T01:03:43.361Z,98320.34
2022-12-11T01:06:14.225Z,98318.88
2022-12-11T01:08:40.818Z,98310.97
2022-12-11T01:11:09.510Z,98314.56
2022-12-11T01:13:36.409Z,98310.56
2022-12-11T01:16:21.397Z,98312.78
2022-12-11T01:18:48.139Z,98326.28
2022-12-11T01:21:14.766Z,98332.31
2022-12-11T01:23:41.355Z,98336.00
2022-12-11T01:26:12.940Z,98326.81
2022-12-11T01:28:39.949Z,98327.66
2022-12-11T01:31:10.848Z,98329.13
2022-12-11T01:33:37.888Z,98331.13
2022-12-11T01:36:30.928Z,98330.66
2022-12-11T01:38:57.578Z,98341.34
2022-12-11T01:41:24.145Z,98341.00
2022-12-11T01:44:00.572Z,98334.09
2022-12-11T01:46:27.744Z,98332.16
2022-12-11T01:48:54.575Z,98334.28
2022-12-11T01:51:21.227Z,98328.19
2022-12-11T01:53:50.956Z,98331.84
2022-12-11T01:56:17.557Z,98342.69
2022-12-11T01:58:50.857Z,98338.66
2022-12-11T02:01:26.237Z,98345.53
2022-12-11T02:03:53.016Z,98356.91
2022-12-11T02:06:42.095Z,98347.72
2022-12-11T02:09:19.522Z,98350.41
2022-12-11T02:12:07.476Z,98357.28
2022-12-11T02:14:37.282Z,98354.06
2022-12-11T02:17:07.701Z,98346.41
2022-12-11T02:19:49.697Z,98342.19
2022-12-11T02:22:35.203Z,98352.69
2022-12-11T02:25:17.427Z,98353.63
2022-12-11T02:28:35.229Z,98360.19
2022-12-11T02:31:12.401Z,98346.31
2022-12-11T02:33:45.430Z,98334.75
2022-12-11T02:36:11.995Z,98353.69
2022-12-11T02:38:41.608Z,98358.03
2022-12-11T02:41:08.399Z,98347.72
2022-12-11T02:43:35.209Z,98341.00
2022-12-11T02:46:01.941Z,98339.87
2022-12-11T02:48:28.680Z,98333.81
2022-12-11T02:50:56.927Z,98338.34
2022-12-11T02:53:25.575Z,98334.53
2022-12-11T02:55:56.345Z,98337.03
2022-12-11T02:58:25.064Z,98324.31
2022-12-11T03:00:51.637Z,98327.28
2022-12-11T03:03:18.241Z,98333.19
2022-12-11T03:05:46.514Z,98330.50
2022-12-11T03:08:17.421Z,98330.22
2022-12-11T03:10:45.050Z,98320.66
2022-12-11T03:13:12.545Z,98319.25
2022-12-11T03:15:53.226Z,98323.19
2022-12-11T03:18:44.352Z,98324.63
2022-12-11T03:21:33.365Z,98328.66
2022-12-11T03:24:10.310Z,98321.69
2022-12-11T03:26:39.679Z,98331.78
2022-12-11T03:29:13.935Z,98327.38
2022-12-11T03:31:44.209Z,98327.50
2022-12-11T03:34:23.616Z,98329.06
2022-12-11T03:36:50.197Z,98331.25
2022-12-11T03:39:22.294Z,98330.00
2022-12-11T03:41:49.048Z,98324.50
2022-12-11T03:44:15.923Z,98319.56
2022-12-11T03:46:42.549Z,98319.94
2022-12-11T03:49:22.989Z,98326.47
2022-12-11T03:51:49.724Z,98336.03
2022-12-11T03:54:16.483Z,98336.41
2022-12-11T03:56:43.487Z,98331.28
2022-12-11T03:59:10.071Z,98326.38
2022-12-11T04:01:36.896Z,98326.75
2022-12-11T04:04:03.778Z,98331.03
2022-12-11T04:06:30.468Z,98334.88
2022-12-11T04:08:57.060Z,98339.56
2022-12-11T04:11:35.772Z,98328.59
2022-12-11T04:14:31.627Z,98332.06
2022-12-11T04:16:58.899Z,98340.09
2022-12-11T04:19:44.068Z,98332.91
2022-12-11T04:22:30.370Z,98324.66
2022-12-11T04:24:57.053Z,98331.91
2022-12-11T04:27:42.372Z,98332.47
2022-12-11T04:30:11.597Z,98343.50
2022-12-11T04:32:38.142Z,98348.34
2022-12-11T04:35:06.322Z,98350.41
2022-12-11T04:37:32.972Z,98352.47
2022-12-11T04:39:59.559Z,98360.16
2022-12-11T04:42:26.121Z,98356.69
2022-12-11T04:44:52.695Z,98356.47
2022-12-11T04:47:19.271Z,98356.53
2022-12-11T04:49:46.032Z,98366.38
2022-12-11T04:52:12.601Z,98374.12
2022-12-11T04:54:39.843Z,98384.75
2022-12-11T04:57:06.470Z,98388.97
2022-12-11T04:59:33.464Z,98390.66
2022-12-11T05:02:00.135Z,98384.81
2022-12-11T05:04:33.088Z,98395.22
2022-12-11T05:06:59.993Z,98388.97
2022-12-11T05:09:27.166Z,98410.28
2022-12-11T05:11:53.875Z,98406.59
2022-12-11T05:14:20.592Z,98418.13
2022-12-11T05:16:47.206Z,98426.19
2022-12-11T05:19:13.781Z,98415.16
2022-12-11T05:21:40.360Z,98408.09
2022-12-11T05:24:07.304Z,98416.19
2022-12-11T05:26:33.868Z,98405.41
2022-12-11T05:29:00.489Z,98412.41
2022-12-11T05:31:27.618Z,98425.69
2022-12-11T05:33:54.240Z,98416.56
2022-12-11T05:36:39.571Z,98415.34
2022-12-11T05:39:06.208Z,98417.47
2022-12-11T05:41:33.707Z,98425.94
2022-12-11T05:44:00.571Z,98418.69
2022-12-11T05:46:28.692Z,98416.81
2022-12-11T05:49:00.088Z,98412.47
2022-12-11T05:51:27.577Z,98411.88
2022-12-11T05:53:54.388Z,98412.56
2022-12-11T05:56:22.806Z,98399.81
2022-12-11T05:58:49.957Z,98415.09
2022-12-11T06:01:19.049Z,98418.69
2022-12-11T06:03:45.757Z,98427.19
2022-12-11T06:06:12.423Z,98425.06
2022-12-11T06:08:39.046Z,98426.34
2022-12-11T06:11:05.864Z,98446.06
2022-12-11T06:13:32.611Z,98444.09
2022-12-11T06:16:03.246Z,98447.34
2022-12-11T06:18:29.878Z,98457.44
2022-12-11T06:20:56.513Z,98461.59
2022-12-11T06:23:23.250Z,98471.63
2022-12-11T06:25:49.886Z,98473.88
2022-12-11T06:28:16.628Z,98487.50
2022-12-11T06:30:43.269Z,98487.44
2022-12-11T06:33:09.903Z,98485.94
2022-12-11T06:35:42.095Z,98489.66
2022-12-11T06:38:11.264Z,98500.06
2022-12-11T06:40:38.315Z,98498.22
2022-12-11T06:43:04.888Z,98512.88
2022-12-11T06:45:31.532Z,98508.06
2022-12-11T06:47:58.748Z,98516.69
2022-12-11T06:50:25.535Z,98512.16
2022-12-11T06:52:52.165Z,98520.25
2022-12-11T06:55:21.101Z,98526.47
2022-12-11T06:57:47.668Z,98521.53
2022-12-11T07:00:14.854Z,98536.56
2022-12-11T07:02:41.531Z,98538.09
2022-12-11T07:05:08.381Z,98540.09
2022-12-11T07:07:35.049Z,98542.44
2022-12-11T07:10:07.564Z,98539.47
2022-12-11T07:12:35.218Z,98555.28
2022-12-11T07:15:01.795Z,98556.09
2022-12-11T07:17:28.878Z,98553.56
2022-12-11T07:19:55.514Z,98553.56
2022-12-11T07:22:22.075Z,98561.22
2022-12-11T07:24:48.686Z,98569.28
2022-12-11T07:27:15.281Z,98572.34
2022-12-11T07:29:41.838Z,98580.06
2022-12-11T07:32:08.496Z,98578.38
2022-12-11T07:34:35.173Z,98579.22
2022-12-11T07:37:01.817Z,98568.44
2022-12-11T07:39:28.379Z,98571.78
2022-12-11T07:41:55.207Z,98582.94
2022-12-11T07:44:21.790Z,98583.75
2022-12-11T07:46:48.351Z,98591.69
2022-12-11T07:49:14.916Z,98598.06
2022-12-11T07:51:42.678Z,98603.28
2022-12-11T07:54:12.945Z,98598.94
2022-12-11T07:56:43.653Z,98609.50
2022-12-11T07:59:10.876Z,98605.16
2022-12-11T08:01:37.662Z,98618.25
2022-12-11T08:04:05.539Z,98632.75
2022-12-11T08:06:36.007Z,98625.69
2022-12-11T08:09:04.163Z,98627.69
2022-12-11T08:11:33.642Z,98628.09
2022-12-11T08:14:00.283Z,98632.81
2022-12-11T08:16:29.965Z,98645.44
2022-12-11T08:18:56.764Z,98645.09
2022-12-11T08:21:25.561Z,98656.69
2022-12-11T08:23:52.636Z,98661.59
2022-12-11T08:26:22.108Z,98659.09
2022-12-11T08:28:48.792Z,98659.09
2022-12-11T08:31:15.733Z,98666.16
2022-12-11T08:33:43.458Z,98669.88
2022-12-11T08:36:11.975Z,98673.22
2022-12-11T08:38:38.722Z,98680.66
2022-12-11T08:41:12.520Z,98674.25
2022-12-11T08:43:39.173Z,98687.72
2022-12-11T08:46:07.306Z,98700.16
2022-12-11T08:48:34.868Z,98712.78
2022-12-11T08:51:02.144Z,98711.13
2022-12-11T08:53:30.020Z,98716.69
2022-12-11T08:56:13.531Z,98716.03
2022-12-11T08:58:40.397Z,98727.28
2022-12-11T09:01:09.037Z,98739.91
2022-12-11T09:03:36.711Z,98730.59
2022-12-11T09:06:07.381Z,98730.28
2022-12-11T09:08:34.223Z,98731.25
2022-12-11T09:11:11.199Z,98726.91
2022-12-11T09:13:38.211Z,98730.81
2022-12-11T09:16:06.370Z,98725.25
2022-12-11T09:18:35.430Z,98732.88
2022-12-11T09:21:02.999Z,98731.00
2022-12-11T09:23:31.986Z,98730.13
2022-12-11T09:25:58.791Z,98729.72
2022-12-11T09:28:25.666Z,98729.91
2022-12-11T09:30:52.396Z,98724.91
2022-12-11T09:33:19.040Z,98732.31
2022-12-11T09:35:45.756Z,98723.69
2022-12-11T09:38:12.385Z,98725.94
2022-12-11T09:40:43.374Z,98728.72
2022-12-11T09:43:19.618Z,98727.00
2022-12-11T09:45:46.631Z,98731.03
2022-12-11T09:48:13.315Z,98738.97
2022-12-11T09:50:39.954Z,98736.88
2022-12-11T09:53:16.895Z,98742.78
2022-12-11T09:56:08.006Z,98726.06
2022-12-11T09:59:06.908Z,98735.00
2022-12-11T10:01:42.740Z,98732.34
2022-12-11T10:04:13.227Z,98741.06
2022-12-11T10:06:49.978Z,98721.47
2022-12-11T10:09:42.520Z,98716.66
2022-12-11T10:12:11.805Z,98708.81
2022-12-11T10:14:53.788Z,98696.25
2022-12-11T10:17:41.883Z,98702.16
2022-12-11T10:20:19.146Z,98701.34
2022-12-11T10:22:45.785Z,98715.28
2022-12-11T10:25:56.327Z,98741.00
2022-12-11T10:28:23.114Z,98735.41
2022-12-11T10:31:05.767Z,98740.59
2022-12-11T10:33:56.705Z,98749.34
2022-12-11T10:36:42.492Z,98745.81
2022-12-11T10:39:27.294Z,98741.47
2022-12-11T10:41:54.750Z,98739.91
2022-12-11T10:44:29.550Z,98735.47
2022-12-11T10:47:07.270Z,98744.72
2022-12-11T10:49:34.958Z,98750.72
2022-12-11T10:52:01.978Z,98771.44
2022-12-11T10:54:42.452Z,98772.22
2022-12-11T10:57:10.634Z,98779.09
2022-12-11T10:59:43.186Z,98788.13
2022-12-11T11:02:36.951Z,98764.41
2022-12-11T11:05:17.967Z,98773.34
2022-12-11T11:07:44.588Z,98782.53
2022-12-11T11:10:11.249Z,98775.88
2022-12-11T11:12:46.004Z,98775.81
2022-12-11T11:15:16.803Z,98770.91
2022-12-11T11:17:54.514Z,98767.31
2022-12-11T11:20:26.704Z,98770.50
2022-12-11T11:22:58.144Z,98761.63
2022-12-11T11:25:26.299Z,98758.97
2022-12-11T11:28:03.368Z,98750.37
2022-12-11T11:30:40.130Z,98751.06
2022-12-11T11:33:15.510Z,98748.34
2022-12-11T11:36:01.683Z,98748.16
2022-12-11T11:38:32.142Z,98755.62
2022-12-11T11:41:10.109Z,98763.19
2022-12-11T11:43:48.724Z,98772.25
2022-12-11T11:46:18.441Z,98776.31
2022-12-11T11:48:58.778Z,98777.91
2022-12-11T11:51:30.532Z,98783.75
2022-12-11T11:53:59.314Z,98795.44
2022-12-11T11:56:27.846Z,98797.28
2022-12-11T11:59:13.196Z,98794.44
2022-12-11T12:01:41.996Z,98795.84
2022-12-11T12:04:08.637Z,98804.91
2022-12-11T12:06:53.165Z,98803.53
2022-12-11T12:09:57.958Z,98818.84
2022-12-11T12:12:34.336Z,98812.91
2022-12-11T12:15:36.396Z,98808.97
2022-12-11T12:18:15.278Z,98824.12
2022-12-11T12:20:55.591Z,98827.25
2022-12-11T12:23:36.414Z,98829.94
2022-12-11T12:26:28.898Z,98826.97
2022-12-11T12:29:17.405Z,98818.19
2022-12-11T12:32:08.525Z,98825.22
2022-12-11T12:34:47.591Z,98819.03
2022-12-11T12:37:45.864Z,98818.47
2022-12-11T12:40:32.664Z,98821.16
2022-12-11T12:43:18.635Z,98820.31
2022-12-11T12:46:17.664Z,98821.84
2022-12-11T12:48:44.406Z,98822.75
2022-12-11T12:51:13.855Z,98822.91
2022-12-11T12:53:40.462Z,98827.25
2022-12-11T12:56:07.436Z,98845.22
2022-12-11T12:58:33.898Z,98838.12
2022-12-11T13:01:17.399Z,98850.44
2022-12-11T13:03:51.429Z,98853.41
2022-12-11T13:06:37.301Z,98863.94
2022-12-11T13:09:19.432Z,98871.25
2022-12-11T13:11:46.568Z,98881.06
2022-12-11T13:14:16.185Z,98883.34
2022-12-11T13:16:43.705Z,98885.34
2022-12-11T13:19:25.633Z,98887.44
2022-12-11T13:22:15.823Z,98894.63
2022-12-11T13:25:24.457Z,98901.56
2022-12-11T13:27:51.105Z,98896.22
2022-12-11T13:30:25.955Z,98900.19
2022-12-11T13:33:05.671Z,98899.91
2022-12-11T13:35:32.728Z,98909.28
2022-12-11T13:38:03.953Z,98896.91
2022-12-11T13:40:39.099Z,98908.44
2022-12-11T13:43:16.598Z,98909.28
2022-12-11T13:45:43.148Z,98909.41
2022-12-11T13:48:27.036Z,98919.28
2022-12-11T13:50:54.175Z,98916.75
2022-12-11T13:53:21.332Z,98917.47
2022-12-11T13:55:58.456Z,98913.75
2022-12-11T13:58:25.097Z,98918.16
2022-12-11T14:01:07.986Z,98921.78
2022-12-11T14:03:34.650Z,98931.84
2022-12-11T14:06:01.649Z,98932.94
2022-12-11T14:08:33.248Z,98940.69
2022-12-11T14:10:59.979Z,98947.44
2022-12-11T14:13:29.288Z,98949.56
2022-12-11T14:15:55.911Z,98958.81
2022-12-11T14:18:24.731Z,98959.88
2022-12-11T14:21:02.581Z,98951.16
2022-12-11T14:23:36.132Z,98969.88
2022-12-11T14:26:18.948Z,98962.81
2022-12-11T14:28:45.647Z,98973.66
2022-12-11T14:31:23.631Z,98981.09
2022-12-11T14:33:54.017Z,98983.50
2022-12-11T14:36:20.778Z,98994.37
2022-12-11T14:39:03.529Z,98993.69
2022-12-11T14:41:36.621Z,99002.56
2022-12-11T14:44:04.381Z,99005.41
2022-12-11T14:46:48.745Z,99005.66
2022-12-11T14:49:22.853Z,99004.69
2022-12-11T14:51:51.585Z,99007.59
2022-12-11T14:54:39.823Z,99010.31
2022-12-11T14:57:06.726Z,99011.31
2022-12-11T14:59:39.069Z,99010.44
2022-12-11T15:02:24.463Z,99012.41
2022-12-11T15:05:19.353Z,99013.69
2022-12-11T15:08:02.902Z,99018.22
2022-12-11T15:10:41.782Z,99019.63
2022-12-11T15:13:08.762Z,99024.13
2022-12-11T15:15:47.851Z,99023.13
2022-12-11T15:18:29.884Z,99023.44
2022-12-11T15:20:59.391Z,99029.62
2022-12-11T15:23:26.350Z,99029.75
2022-12-11T15:25:54.419Z,99036.41
2022-12-11T15:28:34.873Z,99034.81
2022-12-11T15:31:04.092Z,99034.66
2022-12-11T15:33:34.383Z,99042.97
2022-12-11T15:36:06.330Z,99046.59
2022-12-11T15:38:39.662Z,99033.56
2022-12-11T15:41:07.116Z,99047.09
2022-12-11T15:43:36.222Z,99038.06
2022-12-11T15:46:03.752Z,99044.94
2022-12-11T15:48:30.576Z,99036.22
2022-12-11T15:50:57.335Z,99037.91
2022-12-11T15:53:24.162Z,99040.37
2022-12-11T15:55:51.049Z,99051.25
2022-12-11T15:58:19.386Z,99046.88
2022-12-11T16:00:46.173Z,99050.00
2022-12-11T16:03:13.933Z,99043.97
2022-12-11T16:05:41.689Z,99051.16
2022-12-11T16:08:19.331Z,99049.47
2022-12-11T16:10:46.232Z,99055.13
2022-12-11T16:13:13.268Z,99061.34
2022-12-11T16:15:41.784Z,99072.56
2022-12-11T16:18:11.273Z,99075.84
2022-12-11T16:20:38.419Z,99079.66
2022-12-11T16:23:05.383Z,99070.91
2022-12-11T16:25:32.945Z,99076.66
2022-12-11T16:28:00.679Z,99073.41
2022-12-11T16:30:28.245Z,99072.34
2022-12-11T16:32:55.125Z,99069.38
2022-12-11T16:35:22.093Z,99073.31
2022-12-11T16:37:52.773Z,99077.97
2022-12-11T16:40:19.685Z,99077.97
2022-12-11T16:42:46.383Z,99085.87
2022-12-11T16:45:24.158Z,99088.16
2022-12-11T16:47:53.566Z,99090.53
2022-12-11T16:50:20.718Z,99094.19
2022-12-11T16:52:47.452Z,99096.44
2022-12-11T16:55:15.024Z,99093.03
2022-12-11T16:57:42.155Z,99096.00
2022-12-11T17:00:10.149Z,99094.00
2022-12-11T17:02:37.028Z,99089.66
2022-12-11T17:05:03.894Z,99089.97
2022-12-11T17:07:34.153Z,99096.00
2022-12-11T17:10:02.997Z,99089.66
2022-12-11T17:12:30.223Z,99094.44
2022-12-11T17:14:56.867Z,99085.97
2022-12-11T17:17:23.720Z,99081.66
2022-12-11T17:19:50.452Z,99079.13
2022-12-11T17:22:17.012Z,99089.28
2022-12-11T17:24:43.611Z,99087.84
2022-12-11T17:27:10.238Z,99086.44
2022-12-11T17:29:36.857Z,99091.34
2022-12-11T17:32:03.423Z,99104.47
2022-12-11T17:34:36.102Z,99100.22
2022-12-11T17:37:04.403Z,99105.03
2022-12-11T17:39:31.259Z,99108.28
2022-12-11T17:41:57.834Z,99106.44
2022-12-11T17:44:30.437Z,99104.19
2022-12-11T17:47:01.187Z,99100.66
2022-12-11T17:49:29.226Z,99107.00
2022-12-11T17:51:55.858Z,99108.28
2022-12-11T17:54:23.637Z,99099.44
2022-12-11T17:56:50.421Z,99105.19
2022-12-11T17:59:17.257Z,99100.53
2022-12-11T18:01:43.954Z,99096.94
2022-12-11T18:04:10.604Z,99094.06
2022-12-11T18:06:37.384Z,99109.00
2022-12-11T18:09:04.067Z,99108.44
2022-12-11T18:11:30.899Z,99108.56
2022-12-11T18:13:57.522Z,99104.47
2022-12-11T18:16:27.319Z,99110.06
2022-12-11T18:18:53.989Z,99111.78
2022-12-11T18:21:22.778Z,99114.16
2022-12-11T18:23:50.290Z,99116.84
2022-12-11T18:26:20.555Z,99124.47
2022-12-11T18:28:47.706Z,99134.63
2022-12-11T18:31:14.532Z,99133.91
2022-12-11T18:33:41.987Z,99126.72
2022-12-11T18:36:09.119Z,99134.19
2022-12-11T18:38:35.697Z,99131.00
2022-12-11T18:41:06.053Z,99138.56
2022-12-11T18:43:32.660Z,99136.03
2022-12-11T18:45:59.231Z,99134.34
2022-12-11T18:48:25.822Z,99143.66
2022-12-11T18:50:52.495Z,99137.91
2022-12-11T18:53:19.568Z,99138.31
2022-12-11T18:55:47.584Z,99148.31
2022-12-11T18:58:15.255Z,99147.59
2022-12-11T19:00:42.018Z,99132.53
2022-12-11T19:03:08.976Z,99142.69
2022-12-11T19:05:35.948Z,99142.25
2022-12-11T19:08:03.093Z,99156.06
2022-12-11T19:10:29.773Z,99157.38
2022-12-11T19:12:56.398Z,99164.00
2022-12-11T19:15:24.091Z,99158.22
2022-12-11T19:17:50.994Z,99159.75
2022-12-11T19:20:48.544Z,99164.81
2022-12-11T19:23:04.602Z,99165.81
2022-12-11T19:25:31.429Z,99156.91
2022-12-11T19:27:57.994Z,99163.25
2022-12-11T19:30:24.810Z,99166.94
2022-12-11T19:32:51.377Z,99168.47
2022-12-11T19:35:18.440Z,99173.00
2022-12-11T19:37:45.040Z,99172.28
2022-12-11T19:40:11.774Z,99164.22
2022-12-11T19:42:38.336Z,99166.22
2022-12-11T19:45:05.287Z,99177.63
2022-12-11T19:47:32.083Z,99163.25
2022-12-11T19:49:58.638Z,99172.84
2022-12-11T19:52:25.193Z,99172.25
2022-12-11T19:54:51.786Z,99174.12
2022-12-11T19:57:18.419Z,99173.84
2022-12-11T19:59:45.193Z,99180.88
2022-12-11T20:02:12.355Z,99188.09
2022-12-11T20:04:39.154Z,99182.56
2022-12-11T20:07:05.753Z,99194.84
2022-12-11T20:09:33.655Z,99181.16
2022-12-11T20:12:00.257Z,99178.03
2022-12-11T20:14:26.806Z,99183.72
2022-12-11T20:17:12.955Z,99185.53
2022-12-11T20:19:40.303Z,99193.44
2022-12-11T20:22:07.107Z,99195.81
2022-12-11T20:24:33.803Z,99193.56
2022-12-11T20:27:00.435Z,99198.66
2022-12-11T20:29:27.017Z,99195.25
2022-12-11T20:31:53.682Z,99189.75
2022-12-11T20:34:20.374Z,99191.44
2022-12-11T20:36:48.169Z,99192.69
2022-12-11T20:39:15.262Z,99197.19
2022-12-11T20:41:41.931Z,99202.03
2022-12-11T20:44:08.562Z,99202.56
2022-12-11T20:46:35.144Z,99201.13
2022-12-11T20:49:01.799Z,99197.22
2022-12-11T20:51:29.090Z,99206.81
2022-12-11T20:53:59.670Z,99200.28
2022-12-11T20:56:28.083Z,99210.72
2022-12-11T20:58:54.884Z,99204.09
2022-12-11T21:01:22.715Z,99203.19
2022-12-11T21:03:49.445Z,99199.13
2022-12-11T21:06:31.998Z,99206.03
2022-12-11T21:09:02.591Z,99203.34
2022-12-11T21:11:29.213Z,99209.81
2022-12-11T21:13:55.922Z,99214.88
2022-12-11T21:16:22.653Z,99216.87
2022-12-11T21:18:49.338Z,99231.53
2022-12-11T21:21:16.023Z,99222.38
2022-12-11T21:23:42.738Z,99230.69
2022-12-11T21:26:09.340Z,99225.88
2022-12-11T21:28:35.992Z,99243.09
2022-12-11T21:31:04.079Z,99250.69
2022-12-11T21:33:30.644Z,99253.94
2022-12-11T21:35:57.531Z,99252.09
2022-12-11T21:38:24.413Z,99250.66
2022-12-11T21:40:51.315Z,99259.59
2022-12-11T21:43:17.990Z,99260.56
2022-12-11T21:46:01.678Z,99269.91
2022-12-11T21:48:29.006Z,99265.91
2022-12-11T21:50:55.709Z,99264.78
2022-12-11T21:53:22.305Z,99270.44
2022-12-11T21:55:48.871Z,99268.06
2022-12-11T21:58:15.761Z,99269.47
2022-12-11T22:00:42.421Z,99262.31
2022-12-11T22:03:09.061Z,99277.47
2022-12-11T22:05:35.655Z,99274.97
2022-12-11T22:08:02.724Z,99282.72
2022-12-11T22:10:29.365Z,99275.00
2022-12-11T22:12:55.961Z,99281.62
2022-12-11T22:15:22.517Z,99286.00
2022-12-11T22:17:49.232Z,99284.44
2022-12-11T22:20:15.865Z,99292.87
2022-12-11T22:22:42.619Z,99284.56
2022-12-11T22:25:09.806Z,99288.78
2022-12-11T22:27:36.627Z,99293.88
2022-12-11T22:30:03.846Z,99288.22
2022-12-11T22:32:30.405Z,99282.25
2022-12-11T22:34:57.822Z,99282.56
2022-12-11T22:37:24.578Z,99278.91
2022-12-11T22:39:51.182Z,99289.22
2022-12-11T22:42:17.779Z,99271.06
2022-12-11T22:44:44.358Z,99268.09
2022-12-11T22:47:11.269Z,99279.09
2022-12-11T22:49:37.860Z,99285.13
2022-12-11T22:52:04.631Z,99289.66
2022-12-11T22:54:31.253Z,99295.59
2022-12-11T22:56:57.871Z,99292.47
2022-12-11T22:59:24.452Z,99293.28
2022-12-11T23:01:50.992Z,99293.16
2022-12-11T23:04:17.588Z,99291.06
2022-12-11T23:06:44.133Z,99299.09
2022-12-11T23:09:10.842Z,99296.72
2022-12-11T23:11:37.565Z,99306.56
2022-12-11T23:14:05.844Z,99309.25
2022-12-11T23:16:32.503Z,99313.94
2022-12-11T23:19:00.474Z,99314.50
2022-12-11T23:21:29.826Z,99306.72
2022-12-11T23:23:59.569Z,99302.53
2022-12-11T23:26:27.310Z,99302.78
2022-12-11T23:28:55.063Z,99302.94
2022-12-11T23:31:21.683Z,99305.47
2022-12-11T23:33:48.320Z,99296.59
2022-12-11T23:36:14.931Z,99295.75
2022-12-11T23:38:41.650Z,99296.19
2022-12-11T23:41:08.799Z,99294.78
2022-12-11T23:43:35.621Z,99298.28
2022-12-11T23:46:03.942Z,99293.06
2022-12-11T23:48:31.249Z,99297.72
2022-12-11T23:51:01.211Z,99293.31
2022-12-11T23:53:28.189Z,99299.25
2022-12-11T23:55:55.040Z,99291.63
2022-12-11T23:58:21.804Z,99293.19
